McConnell Air Force Base, KS (67221)

12:24 PM CDT on August 30, 2015 (GMT -0500)
KD0HTI Weather | | Change Station
CLOSE
Current Station
Personal Weather Station
Location: Wichita, KS
Elevation: 1305 ft
Nearby Weather Stations

Elev 1305 ft 37.66 °N, 97.27 °W | Updated 3 seconds ago

Partly Cloudy
Partly Cloudy
80.8 °F
Feels Like 84 °F
N
0.0
Wind Variable Wind from North
Gusts 3.1 mph

Today
High -- | Low -- °F
--% Chance of Precip.
Yesterday
High -- | Low -- °F
Precip. -- in
6:57 AM 8:01 PM
Full, 99% visible
Pressure 30.06 in
Visibility 10.0 miles
Clouds Few 20000 ft
Heat Index 84 °F
Dew Point 70 °F
Humidity 70%
Rainfall 0.00 in
Snow Depth Not available.
UV 0.0 out of 12
Pollen 10.60 out of 12
Air Quality Not available.
Flu Activity Not available.
SPECI KIAB 301717Z AUTO 03004KT 10SM FEW200 25/13 A3006 RMK AO2 DZE07RAB07E17 $
Pressure 30.06 in
Visibility 10.0 miles
Clouds Few 20000 ft
Heat Index 84 °F
Dew Point 70 °F
Humidity 70%
Rainfall 0.00 in
Snow Depth Not available.
UV 0.0 out of 12
Pollen 10.60 out of 12
Air Quality Not available.
Flu Activity Not available.
SPECI KIAB 301717Z AUTO 03004KT 10SM FEW200 25/13 A3006 RMK AO2 DZE07RAB07E17 $

10-Day Weather Forecast

×

Almanac

Astronomy

Aug. 30, 2015 Rise Set
Actual Time
Civil Twilight
Nautical Twilight
Astronomical Twilight
Moon
Length of Visible Light
Length of Day
Tomorrow will be .
, % of the Moon is Illuminated

Today's Extremes

State Highs State Lows

Community

WunderPhotos

Upload Photos

1,851,014 photos uploaded!

WunderBlogs® & News

Nearby

Air Quality

  Air Quality AQ Index Pollutant
Not available.

Snow Depth

Station Depth Elevation

Earthquake Activity

City Distance Mag. Time & Date
Minimum magnitude displayed is 2.5.

Coastal Water Temperatures

Place Temperature

Stations

Nearby Weather Stations

Station Location Temp. Windchill Dew Point Humidity Wind Precip. Elev Updated Type